createdAt,value
2023-04-01T00:00:53.516Z,95865.00
2023-04-01T00:03:21.642Z,95859.00
2023-04-01T00:05:49.221Z,95861.00
2023-04-01T00:08:16.625Z,95859.00
2023-04-01T00:10:43.742Z,95856.00
2023-04-01T00:13:10.880Z,95863.00
2023-04-01T00:15:38.297Z,95867.00
2023-04-01T00:18:06.210Z,95851.00
2023-04-01T00:20:33.542Z,95861.00
2023-04-01T00:23:00.688Z,95842.00
2023-04-01T00:25:27.882Z,95849.00
2023-04-01T00:27:54.993Z,95826.00
2023-04-01T00:30:22.067Z,95834.00
2023-04-01T00:32:52.323Z,95835.00
2023-04-01T00:35:19.532Z,95842.00
2023-04-01T00:37:46.617Z,95843.00
2023-04-01T00:40:30.572Z,95843.00
2023-04-01T00:42:57.919Z,95845.00
2023-04-01T00:45:34.480Z,95838.00
2023-04-01T00:48:03.388Z,95847.00
2023-04-01T00:50:30.793Z,95844.00
2023-04-01T00:52:58.366Z,95848.00
2023-04-01T00:55:25.586Z,95865.00
2023-04-01T00:57:52.738Z,95875.00
2023-04-01T01:00:20.071Z,95859.00
2023-04-01T01:02:47.307Z,95860.00
2023-04-01T01:05:14.786Z,95857.00
2023-04-01T01:07:54.014Z,95846.00
2023-04-01T01:10:27.834Z,95841.00
2023-04-01T01:13:15.447Z,95847.00
2023-04-01T01:15:47.071Z,95838.00
2023-04-01T01:18:17.970Z,95847.00
2023-04-01T01:20:51.095Z,95827.00
2023-04-01T01:23:30.676Z,95839.00
2023-04-01T01:26:16.625Z,95846.00
2023-04-01T01:29:05.839Z,95842.00
2023-04-01T01:31:52.518Z,95833.00
2023-04-01T01:34:28.981Z,95833.00
2023-04-01T01:36:57.080Z,95828.00
2023-04-01T01:39:28.725Z,95817.00
2023-04-01T01:41:56.982Z,95817.00
2023-04-01T01:44:24.086Z,95824.00
2023-04-01T01:46:51.180Z,95833.00
2023-04-01T01:49:18.249Z,95815.00
2023-04-01T01:51:45.377Z,95805.00
2023-04-01T01:54:13.132Z,95808.00
2023-04-01T01:56:40.365Z,95809.00
2023-04-01T01:59:25.602Z,95831.00
2023-04-01T02:02:09.061Z,95823.00
2023-04-01T02:04:37.098Z,95834.00
2023-04-01T02:07:04.563Z,95829.00
2023-04-01T02:09:31.796Z,95839.00
2023-04-01T02:12:00.346Z,95832.00
2023-04-01T02:14:28.027Z,95839.00
2023-04-01T02:16:56.799Z,95839.00
2023-04-01T02:19:26.682Z,95840.00
2023-04-01T02:21:54.917Z,95844.00
2023-04-01T02:24:23.355Z,95839.00
2023-04-01T02:26:53.408Z,95844.00
2023-04-01T02:29:20.986Z,95828.00
2023-04-01T02:31:48.222Z,95816.00
2023-04-01T02:34:15.389Z,95833.00
2023-04-01T02:36:42.739Z,95819.00
2023-04-01T02:39:09.822Z,95823.00
2023-04-01T02:41:43.871Z,95824.00
2023-04-01T02:44:11.543Z,95818.00
2023-04-01T02:46:38.918Z,95822.00
2023-04-01T02:49:06.380Z,95832.00
2023-04-01T02:51:33.936Z,95820.00
2023-04-01T02:54:01.211Z,95823.00
2023-04-01T02:56:28.312Z,95817.00
2023-04-01T02:58:55.609Z,95818.00
2023-04-01T03:01:22.865Z,95819.00
2023-04-01T03:03:50.022Z,95817.00
2023-04-01T03:06:17.299Z,95817.00
2023-04-01T03:08:44.552Z,95806.00
2023-04-01T03:11:11.948Z,95802.00
2023-04-01T03:13:39.161Z,95816.00
2023-04-01T03:16:07.363Z,95811.00
2023-04-01T03:18:34.486Z,95833.00
2023-04-01T03:21:15.391Z,95833.00
2023-04-01T03:23:42.567Z,95826.00
2023-04-01T03:26:09.714Z,95822.00
2023-04-01T03:28:37.354Z,95824.00
2023-04-01T03:31:04.521Z,95826.00
2023-04-01T03:33:31.966Z,95836.00
2023-04-01T03:35:59.227Z,95824.00
2023-04-01T03:38:26.422Z,95827.00
2023-04-01T03:40:53.534Z,95836.00
2023-04-01T03:43:21.413Z,95830.00
2023-04-01T03:45:49.490Z,95818.00
2023-04-01T03:48:16.710Z,95829.00
2023-04-01T03:50:43.850Z,95827.00
2023-04-01T03:53:11.066Z,95830.00
2023-04-01T03:55:38.398Z,95815.00
2023-04-01T03:58:06.124Z,95813.00
2023-04-01T04:00:33.279Z,95811.00
2023-04-01T04:03:00.484Z,95811.00
2023-04-01T04:05:27.678Z,95801.00
2023-04-01T04:07:54.788Z,95803.00
2023-04-01T04:10:23.814Z,95813.00
2023-04-01T04:12:50.949Z,95798.00
2023-04-01T04:15:18.108Z,95784.00
2023-04-01T04:17:46.031Z,95810.00
2023-04-01T04:20:13.648Z,95803.00
2023-04-01T04:22:40.740Z,95792.00
2023-04-01T04:25:08.155Z,95794.00
2023-04-01T04:27:35.303Z,95795.00
2023-04-01T04:30:02.421Z,95795.00
2023-04-01T04:32:30.098Z,95780.00
2023-04-01T04:34:58.248Z,95786.00
2023-04-01T04:37:26.727Z,95777.00
2023-04-01T04:39:53.863Z,95790.00
2023-04-01T04:42:20.984Z,95782.00
2023-04-01T04:44:48.096Z,95787.00
2023-04-01T04:47:15.414Z,95776.00
2023-04-01T04:49:42.581Z,95774.00
2023-04-01T04:52:09.691Z,95787.00
2023-04-01T04:54:36.814Z,95785.00
2023-04-01T04:57:04.014Z,95783.00
2023-04-01T04:59:31.327Z,95769.00
2023-04-01T05:01:58.423Z,95774.00
2023-04-01T05:04:25.654Z,95784.00
2023-04-01T05:06:52.889Z,95775.00
2023-04-01T05:09:20.369Z,95775.00
2023-04-01T05:11:47.475Z,95791.00
2023-04-01T05:14:15.592Z,95769.00
2023-04-01T05:16:42.748Z,95766.00
2023-04-01T05:19:09.862Z,95774.00
2023-04-01T05:21:36.967Z,95763.00
2023-04-01T05:24:04.186Z,95772.00
2023-04-01T05:26:31.552Z,95762.00
2023-04-01T05:28:58.636Z,95762.00
2023-04-01T05:31:26.638Z,95773.00
2023-04-01T05:33:55.032Z,95762.00
2023-04-01T05:36:22.158Z,95773.00
2023-04-01T05:38:49.830Z,95750.00
2023-04-01T05:41:16.969Z,95776.00
2023-04-01T05:43:44.142Z,95770.00
2023-04-01T05:46:11.304Z,95768.00
2023-04-01T05:48:38.554Z,95760.00
2023-04-01T05:51:05.655Z,95763.00
2023-04-01T05:53:32.854Z,95768.00
2023-04-01T05:56:03.727Z,95764.00
2023-04-01T05:58:31.065Z,95766.00
2023-04-01T06:01:10.379Z,95759.00
2023-04-01T06:03:41.323Z,95768.00
2023-04-01T06:06:16.466Z,95775.00
2023-04-01T06:08:43.781Z,95764.00
2023-04-01T06:11:23.774Z,95761.00
2023-04-01T06:13:50.843Z,95757.00
2023-04-01T06:16:22.501Z,95757.00
2023-04-01T06:19:01.001Z,95759.00
2023-04-01T06:21:34.893Z,95753.00
2023-04-01T06:24:15.274Z,95770.00
2023-04-01T06:26:48.470Z,95757.00
2023-04-01T06:29:34.278Z,95752.00
2023-04-01T06:32:01.462Z,95765.00
2023-04-01T06:34:28.608Z,95739.00
2023-04-01T06:36:59.450Z,95764.00
2023-04-01T06:39:41.777Z,95761.00
2023-04-01T06:42:14.854Z,95753.00
2023-04-01T06:44:56.146Z,95732.00
2023-04-01T06:47:23.246Z,95759.00
2023-04-01T06:50:04.024Z,95747.00
2023-04-01T06:52:57.444Z,95775.00
2023-04-01T06:55:24.588Z,95760.00
2023-04-01T06:57:56.313Z,95740.00
2023-04-01T07:00:34.109Z,95764.00
2023-04-01T07:03:04.866Z,95761.00
2023-04-01T07:05:33.733Z,95767.00
2023-04-01T07:08:03.000Z,95761.00
2023-04-01T07:10:39.211Z,95764.00
2023-04-01T07:13:07.921Z,95741.00
2023-04-01T07:15:37.627Z,95756.00
2023-04-01T07:18:08.142Z,95767.00
2023-04-01T07:20:36.235Z,95739.00
2023-04-01T07:23:03.928Z,95770.00
2023-04-01T07:25:47.150Z,95760.00
2023-04-01T07:28:15.661Z,95751.00
2023-04-01T07:30:49.443Z,95755.00
2023-04-01T07:33:18.096Z,95746.00
2023-04-01T07:35:53.994Z,95775.00
2023-04-01T07:38:33.364Z,95768.00
2023-04-01T07:41:03.235Z,95784.00
2023-04-01T07:43:48.657Z,95787.00
2023-04-01T07:46:18.834Z,95793.00
2023-04-01T07:48:49.448Z,95770.00
2023-04-01T07:51:21.674Z,95785.00
2023-04-01T07:53:54.417Z,95794.00
2023-04-01T07:56:24.517Z,95795.00
2023-04-01T07:58:53.894Z,95790.00
2023-04-01T08:01:35.388Z,95797.00
2023-04-01T08:04:09.543Z,95789.00
2023-04-01T08:06:36.815Z,95799.00
2023-04-01T08:09:09.440Z,95801.00
2023-04-01T08:11:43.167Z,95805.00
2023-04-01T08:14:26.424Z,95801.00
2023-04-01T08:16:58.126Z,95797.00
2023-04-01T08:19:50.136Z,95800.00
2023-04-01T08:22:20.007Z,95808.00
2023-04-01T08:24:48.537Z,95810.00
2023-04-01T08:27:15.941Z,95806.00
2023-04-01T08:29:45.492Z,95793.00
2023-04-01T08:32:23.404Z,95807.00
2023-04-01T08:34:52.199Z,95804.00
2023-04-01T08:37:20.635Z,95813.00
2023-04-01T08:39:55.821Z,95813.00
2023-04-01T08:42:41.371Z,95806.00
2023-04-01T08:45:20.759Z,95815.00
2023-04-01T08:48:00.529Z,95812.00
2023-04-01T08:50:42.985Z,95824.00
2023-04-01T08:53:33.454Z,95815.00
2023-04-01T08:56:18.759Z,95798.00
2023-04-01T08:58:55.197Z,95820.00
2023-04-01T09:01:42.579Z,95811.00
2023-04-01T09:04:21.183Z,95805.00
2023-04-01T09:06:51.366Z,95834.00
2023-04-01T09:09:28.392Z,95818.00
2023-04-01T09:11:55.537Z,95835.00
2023-04-01T09:14:25.115Z,95827.00
2023-04-01T09:16:52.166Z,95831.00
2023-04-01T09:19:22.421Z,95831.00
2023-04-01T09:22:08.366Z,95844.00
2023-04-01T09:24:35.491Z,95823.00
2023-04-01T09:27:03.645Z,95838.00
2023-04-01T09:29:49.510Z,95834.00
2023-04-01T09:32:16.589Z,95834.00
2023-04-01T09:35:02.717Z,95827.00
2023-04-01T09:37:32.865Z,95834.00
2023-04-01T09:40:18.608Z,95840.00
2023-04-01T09:42:57.510Z,95845.00
2023-04-01T09:45:34.599Z,95851.00
2023-04-01T09:48:22.090Z,95844.00
2023-04-01T09:50:49.303Z,95840.00
2023-04-01T09:53:22.444Z,95853.00
2023-04-01T09:56:08.329Z,95855.00
2023-04-01T09:58:54.301Z,95858.00
2023-04-01T10:01:28.866Z,95846.00
2023-04-01T10:04:05.822Z,95856.00
2023-04-01T10:06:46.738Z,95855.00
2023-04-01T10:09:32.770Z,95847.00
2023-04-01T10:12:03.771Z,95864.00
2023-04-01T10:14:37.449Z,95867.00
2023-04-01T10:17:23.409Z,95849.00
2023-04-01T10:20:00.847Z,95856.00
2023-04-01T10:22:44.287Z,95860.00
2023-04-01T10:25:17.578Z,95858.00
2023-04-01T10:27:56.226Z,95848.00
2023-04-01T10:30:35.590Z,95845.00
2023-04-01T10:33:21.539Z,95872.00
2023-04-01T10:36:07.043Z,95855.00
2023-04-01T10:38:37.135Z,95867.00
2023-04-01T10:41:07.296Z,95863.00
2023-04-01T10:43:53.187Z,95868.00
2023-04-01T10:46:33.712Z,95856.00
2023-04-01T10:49:24.174Z,95837.00
2023-04-01T10:51:54.267Z,95845.00
2023-04-01T10:54:22.624Z,95864.00
2023-04-01T10:56:51.384Z,95857.00
2023-04-01T10:59:18.485Z,95857.00
2023-04-01T11:02:10.218Z,95867.00
2023-04-01T11:04:57.625Z,95871.00
2023-04-01T11:07:33.846Z,95871.00
2023-04-01T11:10:00.983Z,95862.00
2023-04-01T11:12:46.400Z,95874.00
2023-04-01T11:15:32.516Z,95885.00
2023-04-01T11:18:15.243Z,95884.00
2023-04-01T11:20:45.969Z,95880.00
2023-04-01T11:23:19.190Z,95879.00
2023-04-01T11:26:04.822Z,95884.00
2023-04-01T11:28:41.685Z,95897.00
2023-04-01T11:31:18.742Z,95883.00
2023-04-01T11:33:50.848Z,95890.00
2023-04-01T11:36:24.099Z,95893.00
2023-04-01T11:39:06.432Z,95895.00
2023-04-01T11:41:50.931Z,95894.00
2023-04-01T11:44:22.380Z,95879.00
2023-04-01T11:46:55.477Z,95892.00
2023-04-01T11:49:29.869Z,95887.00
2023-04-01T11:52:02.556Z,95890.00
2023-04-01T11:54:34.144Z,95894.00
2023-04-01T11:57:05.513Z,95898.00
2023-04-01T11:59:51.373Z,95898.00
2023-04-01T12:02:25.478Z,95889.00
2023-04-01T12:04:57.857Z,95883.00
2023-04-01T12:07:31.232Z,95896.00
2023-04-01T12:10:07.454Z,95902.00
2023-04-01T12:12:50.760Z,95904.00
2023-04-01T12:15:34.681Z,95904.00
2023-04-01T12:18:20.928Z,95912.00
2023-04-01T12:20:52.456Z,95906.00
2023-04-01T12:23:33.507Z,95911.00
2023-04-01T12:26:11.315Z,95916.00
2023-04-01T12:28:42.737Z,95911.00
2023-04-01T12:31:48.578Z,95917.00
2023-04-01T12:34:33.904Z,95922.00
2023-04-01T12:37:06.847Z,95920.00
2023-04-01T12:39:40.306Z,95914.00
2023-04-01T12:42:26.220Z,95916.00
2023-04-01T12:45:14.033Z,95920.00
2023-04-01T12:47:46.468Z,95919.00
2023-04-01T12:50:25.843Z,95912.00
2023-04-01T12:53:03.990Z,95907.00
2023-04-01T12:55:34.351Z,95913.00
2023-04-01T12:58:18.213Z,95910.00
2023-04-01T13:00:47.341Z,95909.00
2023-04-01T13:03:18.236Z,95918.00
2023-04-01T13:05:56.822Z,95919.00
2023-04-01T13:08:37.848Z,95915.00
2023-04-01T13:11:09.960Z,95904.00
2023-04-01T13:13:40.210Z,95916.00
2023-04-01T13:16:16.154Z,95904.00
2023-04-01T13:18:49.974Z,95896.00
2023-04-01T13:21:17.067Z,95899.00
2023-04-01T13:24:03.683Z,95903.00
2023-04-01T13:26:35.400Z,95897.00
2023-04-01T13:29:12.353Z,95904.00
2023-04-01T13:31:42.979Z,95898.00
2023-04-01T13:41:04.104Z,95897.00
2023-04-01T13:44:03.023Z,95905.00
2023-04-01T13:47:04.037Z,95906.00
2023-04-01T13:50:03.453Z,95905.00
2023-04-01T13:53:02.937Z,95912.00
2023-04-01T13:55:30.097Z,95915.00
2023-04-01T13:58:06.144Z,95906.00
2023-04-01T14:00:52.197Z,95912.00
2023-04-01T14:03:38.101Z,95915.00
2023-04-01T14:06:11.658Z,95916.00
2023-04-01T14:08:45.426Z,95910.00
2023-04-01T14:11:31.572Z,95913.00
2023-04-01T14:14:01.754Z,95903.00
2023-04-01T14:16:47.815Z,95902.00
2023-04-01T14:19:33.883Z,95903.00
2023-04-01T14:22:06.270Z,95899.00
2023-04-01T14:24:33.365Z,95906.00
2023-04-01T14:27:03.454Z,95914.00
2023-04-01T14:29:46.263Z,95909.00
2023-04-01T14:32:22.549Z,95908.00
2023-04-01T14:35:08.377Z,95913.00
2023-04-01T14:37:54.196Z,95909.00
2023-04-01T14:40:48.616Z,95908.00
2023-04-01T14:43:19.529Z,95901.00
2023-04-01T14:46:05.111Z,95898.00
2023-04-01T14:48:36.199Z,95900.00
2023-04-01T14:51:04.866Z,95896.00
2023-04-01T14:53:32.935Z,95902.00
2023-04-01T14:56:00.928Z,95898.00
2023-04-01T14:58:40.756Z,95904.00
2023-04-01T15:01:07.913Z,95897.00
2023-04-01T15:03:40.157Z,95892.00
2023-04-01T15:06:26.008Z,95899.00
2023-04-01T15:08:53.077Z,95897.00
2023-04-01T15:11:27.200Z,95888.00
2023-04-01T15:14:03.340Z,95892.00
2023-04-01T15:16:32.861Z,95896.00
2023-04-01T15:19:13.517Z,95902.00
2023-04-01T15:21:59.499Z,95902.00
2023-04-01T15:24:26.586Z,95925.00
2023-04-01T15:27:01.269Z,95923.00
2023-04-01T15:29:40.808Z,95928.00
2023-04-01T15:32:20.836Z,95931.00
2023-04-01T15:34:56.898Z,95933.00
2023-04-01T15:37:29.321Z,95926.00
2023-04-01T15:39:59.409Z,95923.00
2023-04-01T15:42:33.239Z,95930.00
2023-04-01T15:45:07.134Z,95923.00
2023-04-01T15:47:44.398Z,95932.00
2023-04-01T15:50:35.960Z,95922.00
2023-04-01T15:53:06.209Z,95921.00
2023-04-01T15:55:52.109Z,95916.00
2023-04-01T15:58:34.439Z,95926.00
2023-04-01T16:01:16.839Z,95938.00
2023-04-01T16:03:47.990Z,95943.00
2023-04-01T16:06:19.453Z,95930.00
2023-04-01T16:08:46.598Z,95920.00
2023-04-01T16:11:16.329Z,95944.00
2023-04-01T16:14:02.103Z,95953.00
2023-04-01T16:16:37.479Z,95943.00
2023-04-01T16:19:23.453Z,95951.00
2023-04-01T16:22:08.769Z,95954.00
2023-04-01T16:24:36.017Z,95960.00
2023-04-01T16:27:21.859Z,95953.00
2023-04-01T16:29:54.137Z,95955.00
2023-04-01T16:32:42.594Z,95954.00
2023-04-01T16:35:28.018Z,95954.00
2023-04-01T16:37:57.182Z,95961.00
2023-04-01T16:40:27.405Z,95952.00
2023-04-01T16:42:59.115Z,95955.00
2023-04-01T16:45:29.292Z,95963.00
2023-04-01T16:47:56.467Z,95952.00
2023-04-01T16:50:24.465Z,95940.00
2023-04-01T16:52:54.699Z,95946.00
2023-04-01T16:55:22.245Z,95951.00
2023-04-01T16:57:49.426Z,95937.00
2023-04-01T17:00:25.287Z,95948.00
2023-04-01T17:03:07.754Z,95952.00
2023-04-01T17:05:37.709Z,95955.00
2023-04-01T17:08:23.706Z,95962.00
2023-04-01T17:10:54.699Z,95967.00
2023-04-01T17:13:28.643Z,95959.00
2023-04-01T17:16:04.753Z,95971.00
2023-04-01T17:18:38.806Z,95966.00
2023-04-01T17:21:08.573Z,95958.00
2023-04-01T17:23:39.788Z,95960.00
2023-04-01T17:26:09.935Z,95958.00
2023-04-01T17:28:43.129Z,95961.00
2023-04-01T17:31:29.131Z,95964.00
2023-04-01T17:33:56.267Z,95970.00
2023-04-01T17:36:27.858Z,95976.00
2023-04-01T17:39:13.676Z,95977.00
2023-04-01T17:41:48.343Z,95979.00
2023-04-01T17:44:17.905Z,95982.00
2023-04-01T17:47:03.658Z,95980.00
2023-04-01T17:49:36.872Z,95979.00
2023-04-01T17:52:11.870Z,95989.00
2023-04-01T17:54:44.072Z,95977.00
2023-04-01T17:57:11.241Z,95984.00
2023-04-01T18:00:11.302Z,95989.00
2023-04-01T18:03:03.523Z,95996.00
2023-04-01T18:06:00.979Z,95994.00
2023-04-01T18:08:31.341Z,95996.00
2023-04-01T18:11:36.179Z,95992.00
2023-04-01T18:15:21.665Z,96005.00
2023-04-01T18:18:14.844Z,96002.00
2023-04-01T18:20:57.457Z,96002.00
2023-04-01T18:23:59.124Z,96009.00
2023-04-01T18:26:30.471Z,96008.00
2023-04-01T18:28:59.702Z,96020.00
2023-04-01T18:31:37.206Z,96014.00
2023-04-01T18:34:27.565Z,96014.00
2023-04-01T18:36:56.699Z,96020.00
2023-04-01T18:39:29.579Z,96017.00
2023-04-01T18:42:15.616Z,96030.00
2023-04-01T18:45:03.209Z,96038.00
2023-04-01T18:47:33.456Z,96032.00
2023-04-01T18:50:00.910Z,96035.00
2023-04-01T18:52:28.654Z,96041.00
2023-04-01T18:55:01.447Z,96050.00
2023-04-01T18:57:39.494Z,96048.00
2023-04-01T19:00:10.179Z,96050.00
2023-04-01T19:02:40.331Z,96053.00
2023-04-01T19:05:20.719Z,96055.00
2023-04-01T19:07:47.899Z,96070.00
2023-04-01T19:10:17.353Z,96066.00
2023-04-01T19:12:47.606Z,96065.00
2023-04-01T19:15:20.945Z,96071.00
2023-04-01T19:17:54.157Z,96072.00
2023-04-01T19:20:21.223Z,96071.00
2023-04-01T19:22:58.766Z,96068.00
2023-04-01T19:25:27.719Z,96073.00
2023-04-01T19:27:56.759Z,96070.00
2023-04-01T19:30:42.699Z,96075.00
2023-04-01T19:33:39.176Z,96081.00
2023-04-01T19:36:09.160Z,96075.00
2023-04-01T19:38:40.587Z,96084.00
2023-04-01T19:41:16.864Z,96078.00
2023-04-01T19:43:43.932Z,96084.00
2023-04-01T19:46:30.628Z,96079.00
2023-04-01T19:49:06.832Z,96085.00
2023-04-01T19:51:46.423Z,96070.00
2023-04-01T19:54:31.552Z,96086.00
2023-04-01T19:57:05.015Z,96076.00
2023-04-01T19:59:32.155Z,96086.00
2023-04-01T20:02:00.785Z,96087.00
2023-04-01T20:04:30.411Z,96096.00
2023-04-01T20:07:16.732Z,96093.00
2023-04-01T20:09:46.636Z,96091.00
2023-04-01T20:12:18.309Z,96105.00
2023-04-01T20:14:55.724Z,96104.00
2023-04-01T20:17:22.812Z,96106.00
2023-04-01T20:20:02.817Z,96106.00
2023-04-01T20:22:45.690Z,96112.00
2023-04-01T20:25:14.732Z,96107.00
2023-04-01T20:27:53.076Z,96114.00
2023-04-01T20:30:27.566Z,96109.00
2023-04-01T20:33:01.188Z,96118.00
2023-04-01T20:35:43.579Z,96115.00
2023-04-01T20:38:16.524Z,96126.00
2023-04-01T20:40:48.496Z,96128.00
2023-04-01T20:43:29.256Z,96141.00
2023-04-01T20:45:56.427Z,96149.00
2023-04-01T20:48:37.997Z,96167.00
2023-04-01T20:51:11.279Z,96183.00
2023-04-01T20:53:39.625Z,96183.00
2023-04-01T20:56:12.931Z,96181.00
2023-04-01T20:58:44.890Z,96172.00
2023-04-01T21:01:24.220Z,96181.00
2023-04-01T21:04:11.140Z,96185.00
2023-04-01T21:06:41.883Z,96203.00
2023-04-01T21:09:12.476Z,96201.00
2023-04-01T21:11:46.536Z,96205.00
2023-04-01T21:14:28.597Z,96203.00
2023-04-01T21:17:10.148Z,96204.00
2023-04-01T21:19:41.845Z,96206.00
2023-04-01T21:22:21.600Z,96208.00
2023-04-01T21:25:00.292Z,96200.00
2023-04-01T21:27:46.198Z,96201.00
2023-04-01T21:30:22.704Z,96206.00
2023-04-01T21:32:59.700Z,96203.00
2023-04-01T21:35:42.170Z,96207.00
2023-04-01T21:38:17.502Z,96206.00
2023-04-01T21:41:03.028Z,96203.00
2023-04-01T21:43:34.395Z,96197.00
2023-04-01T21:46:16.926Z,96194.00
2023-04-01T21:48:44.390Z,96195.00
2023-04-01T21:51:22.555Z,96201.00
2023-04-01T21:53:58.792Z,96205.00
2023-04-01T21:56:26.199Z,96201.00
2023-04-01T21:58:56.283Z,96205.00
2023-04-01T22:01:27.749Z,96204.00
2023-04-01T22:04:04.122Z,96205.00
2023-04-01T22:06:33.980Z,96212.00
2023-04-01T22:09:01.405Z,96219.00
2023-04-01T22:11:45.998Z,96216.00
2023-04-01T22:14:27.204Z,96220.00
2023-04-01T22:16:55.399Z,96212.00
2023-04-01T22:19:42.468Z,96209.00
2023-04-01T22:22:32.850Z,96204.00
2023-04-01T22:25:10.297Z,96219.00
2023-04-01T22:27:47.613Z,96215.00
2023-04-01T22:30:14.671Z,96210.00
2023-04-01T22:32:43.857Z,96215.00
2023-04-01T22:35:18.322Z,96218.00
2023-04-01T22:37:48.438Z,96211.00
2023-04-01T22:40:34.636Z,96221.00
2023-04-01T22:43:03.227Z,96219.00
2023-04-01T22:45:35.278Z,96215.00
2023-04-01T22:48:06.772Z,96215.00
2023-04-01T22:50:48.939Z,96220.00
2023-04-01T22:53:19.157Z,96219.00
2023-04-01T22:55:53.594Z,96230.00
2023-04-01T22:58:39.945Z,96231.00
2023-04-01T23:01:08.194Z,96228.00
2023-04-01T23:03:35.871Z,96228.00
2023-04-01T23:06:03.938Z,96233.00
2023-04-01T23:08:43.313Z,96239.00
2023-04-01T23:11:11.557Z,96233.00
2023-04-01T23:13:39.375Z,96232.00
2023-04-01T23:16:07.306Z,96231.00
2023-04-01T23:18:38.261Z,96238.00
2023-04-01T23:21:14.658Z,96227.00
2023-04-01T23:23:56.216Z,96238.00
2023-04-01T23:26:23.298Z,96223.00
2023-04-01T23:28:51.057Z,96231.00
2023-04-01T23:31:33.646Z,96234.00
2023-04-01T23:34:01.848Z,96230.00
2023-04-01T23:36:29.418Z,96235.00
2023-04-01T23:38:56.535Z,96238.00
2023-04-01T23:41:29.054Z,96240.00
2023-04-01T23:44:06.749Z,96234.00
2023-04-01T23:46:34.591Z,96235.00
2023-04-01T23:49:02.059Z,96230.00
2023-04-01T23:51:30.507Z,96234.00
2023-04-01T23:53:59.962Z,96243.00
2023-04-01T23:56:47.381Z,96248.00
2023-04-01T23:59:19.200Z,96246.00
